Terminal Aerodrome Forecast
Issued by NWS

Home | Current Version | Previous Version | Graphics & Text | Print | Product List | Glossary On
Versions: 1 2 3 4 5 6 7 8 9 10 11 12 13 14 15 16 17 18 19
629
FTUS43 KFGF 230653 AAA
TAFBJI
TAF AMD
KBJI 230653Z 2307/2406 34009KT P6SM SCT020
      TEMPO 2307/2309 BKN020
     FM230900 36007KT P6SM SCT060
     FM231300 36006KT P6SM BKN080
     FM231500 01006KT P6SM SCT080
     FM240100 02008KT P6SM BKN150=

USA.gov is the U.S. government's official web portal to all federal, state and local government web resources and services.